Time;durP1;ratioP1;P1;durP2;ratioP2;P2;SDS_P1;SDS_P2;PMS_P1;PMS_P2;Temp;Humidity;BMP_temperature;BMP_pressure;BME280_temperature;BME280_humidity;BME280_pressure;Samples;Min_cycle;Max_cycle;Signal;HPM_P1;HPM_P2
2022/01/24 00:01:58;;;;;;;4.73;1.50;;;5.50;99.90;;;;;;5040860;28;20651;-68
2022/01/24 00:04:25;;;;;;;8.70;1.83;;;5.50;99.90;;;;;;5048101;28;20183;-66
2022/01/24 00:06:52;;;;;;;6.27;1.70;;;5.50;99.90;;;;;;5056694;28;20190;-66
2022/01/24 00:09:19;;;;;;;6.20;2.00;;;5.50;99.90;;;;;;5042559;28;20202;-68
2022/01/24 00:12:02;;;;;;;9.93;2.23;;;5.50;99.90;;;;;;5084683;28;20278;-69
2022/01/24 00:27:47;;;;;;;9.53;2.20;;;5.20;99.90;;;;;;5072456;28;20188;-68
2022/01/24 00:30:15;;;;;;;7.07;2.10;;;5.20;99.90;;;;;;5044347;28;20650;-71
2022/01/24 00:32:43;;;;;;;5.13;2.33;;;5.10;99.90;;;;;;5044203;28;21120;-66
2022/01/24 00:35:11;;;;;;;10.20;2.20;;;5.10;99.90;;;;;;5044083;28;20944;-67
2022/01/24 00:37:38;;;;;;;8.90;2.63;;;5.10;99.90;;;;;;5043195;28;20873;-68
2022/01/24 00:40:06;;;;;;;6.80;2.03;;;5.10;99.90;;;;;;5043136;28;20219;-67
2022/01/24 00:45:27;;;;;;;7.47;2.33;;;5.00;99.90;;;;;;5043227;28;20300;-68
2022/01/24 00:55:51;;;;;;;8.23;2.10;;;5.00;99.90;;;;;;5044856;28;20290;-67
2022/01/24 00:58:18;;;;;;;9.10;2.03;;;5.00;99.90;;;;;;5043495;28;20191;-69
2022/01/24 01:00:44;;;;;;;4.53;1.70;;;5.00;99.90;;;;;;5041783;28;20218;-68
2022/01/24 01:03:11;;;;;;;6.70;1.83;;;5.00;99.90;;;;;;5042316;28;20193;-66
2022/01/24 01:18:08;;;;;;;3.43;1.60;;;5.00;99.90;;;;;;5043246;28;20191;-68
2022/01/24 01:19:15;;;;;;;5.13;1.77;;;5.00;99.90;;;;;;5043578;28;20759;-68
2022/01/24 01:21:41;;;;;;;6.23;2.17;;;4.90;99.90;;;;;;5070969;28;20195;-68
2022/01/24 01:24:07;;;;;;;4.60;2.17;;;4.90;99.90;;;;;;5042258;28;20191;-70
2022/01/24 01:26:42;;;;;;;3.93;1.67;;;4.90;99.90;;;;;;5043580;28;20210;-66
2022/01/24 01:29:48;;;;;;;3.37;1.53;;;4.90;99.90;;;;;;5042911;28;20190;-67
2022/01/24 01:35:16;;;;;;;3.63;1.60;;;4.80;99.90;;;;;;5045702;28;20240;-69
2022/01/24 01:56:09;;;;;;;7.30;2.03;;;4.80;99.90;;;;;;5042696;28;20200;-69
2022/01/24 01:58:36;;;;;;;5.67;2.00;;;4.80;99.90;;;;;;5043759;28;20229;-67
2022/01/24 02:01:04;;;;;;;6.07;1.80;;;4.90;99.90;;;;;;5041992;28;20204;-71
2022/01/24 02:03:32;;;;;;;3.70;1.60;;;4.90;99.90;;;;;;5044820;28;20654;-67
2022/01/24 02:05:59;;;;;;;8.67;1.63;;;5.00;99.90;;;;;;5046419;28;20184;-70
2022/01/24 02:08:29;;;;;;;3.80;1.90;;;5.00;99.90;;;;;;5045047;28;20250;-66
2022/01/24 02:11:00;;;;;;;5.00;1.87;;;5.00;99.90;;;;;;5041548;28;20199;-67
2022/01/24 02:13:29;;;;;;;4.60;1.53;;;5.00;99.90;;;;;;5077588;28;20252;-68
2022/01/24 02:21:08;;;;;;;7.13;1.90;;;5.00;99.90;;;;;;5044992;28;20310;-66
2022/01/24 02:23:44;;;;;;;3.07;1.70;;;5.00;99.90;;;;;;5035748;28;20202;-66
2022/01/24 02:26:17;;;;;;;3.47;1.87;;;5.00;99.90;;;;;;5045420;28;20269;-69
2022/01/24 02:29:16;;;;;;;4.73;2.00;;;4.90;99.90;;;;;;5043267;28;20191;-70
2022/01/24 02:31:41;;;;;;;4.43;1.60;;;4.90;99.90;;;;;;5044893;28;20195;-71
2022/01/24 02:34:26;;;;;;;6.50;2.00;;;4.90;99.90;;;;;;5045119;28;20620;-67
2022/01/24 02:36:57;;;;;;;5.33;1.80;;;4.90;99.90;;;;;;5045937;28;20245;-68
2022/01/24 02:52:58;;;;;;;5.97;2.03;;;4.80;99.90;;;;;;5031743;28;20361;-69
2022/01/24 02:55:25;;;;;;;5.60;2.07;;;4.70;99.90;;;;;;5044861;28;20207;-68
2022/01/24 02:57:51;;;;;;;3.77;1.60;;;4.70;99.90;;;;;;5044380;28;20257;-69
2022/01/24 03:00:17;;;;;;;5.37;2.07;;;4.70;99.90;;;;;;5042641;28;20246;-67
2022/01/24 03:02:44;;;;;;;3.57;1.80;;;4.70;99.90;;;;;;5040608;28;20415;-67
2022/01/24 03:05:10;;;;;;;4.77;1.97;;;4.60;99.90;;;;;;5045003;28;20195;-66
2022/01/24 03:07:36;;;;;;;4.00;1.67;;;4.60;99.90;;;;;;5044915;28;20191;-67
2022/01/24 03:10:12;;;;;;;3.13;1.80;;;4.50;99.90;;;;;;5040677;28;21861;-67
2022/01/24 03:12:42;;;;;;;8.97;2.27;;;4.40;99.90;;;;;;5025180;28;20655;-67
2022/01/24 03:15:10;;;;;;;4.40;1.87;;;4.40;99.90;;;;;;5042409;28;20183;-67
2022/01/24 03:17:38;;;;;;;3.60;1.77;;;4.30;99.90;;;;;;5041840;28;20227;-66
2022/01/24 03:20:06;;;;;;;4.50;1.70;;;4.40;99.90;;;;;;5040946;28;20217;-68
2022/01/24 03:22:32;;;;;;;4.50;1.73;;;4.40;99.90;;;;;;5074239;28;20188;-69
2022/01/24 03:24:59;;;;;;;4.93;2.13;;;4.50;99.90;;;;;;5070134;28;20662;-68
2022/01/24 03:27:25;;;;;;;3.63;1.97;;;4.50;99.90;;;;;;5069579;28;20718;-67
2022/01/24 03:29:51;;;;;;;5.00;2.07;;;4.50;99.90;;;;;;5071425;28;20207;-69
2022/01/24 03:32:17;;;;;;;3.20;1.87;;;4.50;99.90;;;;;;5041804;28;20210;-69
2022/01/24 03:34:44;;;;;;;10.43;2.30;;;4.50;99.90;;;;;;5073046;28;20196;-67
2022/01/24 03:37:10;;;;;;;2.50;1.70;;;4.50;99.90;;;;;;5041066;28;20187;-66
2022/01/24 03:39:37;;;;;;;3.70;1.83;;;4.50;99.90;;;;;;5023046;28;20207;-69
2022/01/24 03:42:04;;;;;;;4.97;1.97;;;4.50;99.90;;;;;;5072486;28;21011;-68
2022/01/24 03:44:30;;;;;;;4.50;1.97;;;4.50;99.90;;;;;;5039880;28;20209;-67
2022/01/24 03:49:48;;;;;;;5.57;1.97;;;4.50;99.90;;;;;;5040540;28;20288;-66
2022/01/24 03:52:18;;;;;;;7.97;2.23;;;4.50;99.90;;;;;;5039807;28;20245;-66
2022/01/24 03:54:47;;;;;;;4.50;2.33;;;4.50;99.90;;;;;;5020102;28;20196;-68
2022/01/24 03:57:17;;;;;;;2.77;1.90;;;4.40;99.90;;;;;;5034491;28;20980;-68
2022/01/24 03:59:44;;;;;;;5.13;1.90;;;4.40;99.90;;;;;;5039161;28;20318;-69
2022/01/24 04:02:13;;;;;;;4.43;2.10;;;4.40;99.90;;;;;;5071352;28;20183;-69
2022/01/24 04:04:40;;;;;;;3.20;1.73;;;4.40;99.90;;;;;;5023217;28;20198;-67
2022/01/24 04:07:08;;;;;;;3.17;1.90;;;4.50;99.90;;;;;;5039308;28;20188;-69
2022/01/24 04:09:35;;;;;;;5.13;1.97;;;4.50;99.90;;;;;;5072920;28;20223;-68
2022/01/24 04:12:03;;;;;;;6.23;1.90;;;4.40;99.90;;;;;;5040961;28;20267;-66
2022/01/24 04:22:18;;;;;;;4.90;1.77;;;4.40;99.90;;;;;;5044332;28;20616;-67
2022/01/24 04:24:47;;;;;;;3.10;1.73;;;4.40;99.90;;;;;;5071765;28;20192;-69
2022/01/24 04:27:14;;;;;;;5.10;1.83;;;4.50;99.90;;;;;;5042784;28;20183;-65
2022/01/24 04:29:42;;;;;;;4.20;2.00;;;4.50;99.90;;;;;;5022713;28;20507;-67
2022/01/24 04:32:10;;;;;;;6.37;2.43;;;4.40;99.90;;;;;;5075528;28;20192;-64
2022/01/24 04:34:36;;;;;;;4.77;2.73;;;4.40;99.90;;;;;;5046016;28;20225;-64
2022/01/24 04:37:02;;;;;;;9.03;3.00;;;4.50;99.90;;;;;;5045749;28;20631;-65
2022/01/24 04:39:29;;;;;;;5.23;2.43;;;4.50;99.90;;;;;;5042914;28;20218;-67
2022/01/24 04:41:57;;;;;;;5.00;2.40;;;4.50;99.90;;;;;;5043353;28;20489;-65
2022/01/24 04:47:17;;;;;;;5.93;2.30;;;4.60;99.90;;;;;;5048852;28;20179;-66
2022/01/24 04:52:50;;;;;;;4.03;2.00;;;4.50;99.90;;;;;;5067729;28;20577;-64
2022/01/24 04:55:16;;;;;;;2.87;1.70;;;4.50;99.90;;;;;;5058794;28;20238;-66
2022/01/24 04:57:43;;;;;;;5.37;1.90;;;4.50;99.90;;;;;;5047111;28;20183;-65
2022/01/24 05:00:12;;;;;;;5.37;2.20;;;4.50;99.90;;;;;;5054123;28;20213;-66
2022/01/24 05:02:38;;;;;;;5.77;2.20;;;4.40;99.90;;;;;;5055791;28;20562;-63
2022/01/24 05:05:09;;;;;;;3.17;1.90;;;4.30;99.90;;;;;;5068936;28;20179;-64
2022/01/24 05:07:35;;;;;;;3.03;1.90;;;4.30;99.90;;;;;;5056479;28;20184;-64
2022/01/24 05:10:10;;;;;;;2.33;1.60;;;4.30;99.90;;;;;;5047938;28;20187;-65
2022/01/24 05:23:31;;;;;;;3.73;1.97;;;4.20;99.90;;;;;;5047766;28;20290;-63
2022/01/24 05:26:01;;;;;;;4.33;2.40;;;4.20;99.90;;;;;;5047062;28;20184;-64
2022/01/24 05:28:29;;;;;;;4.30;2.17;;;4.20;99.90;;;;;;5043943;28;20277;-64
2022/01/24 05:30:58;;;;;;;4.37;1.90;;;4.20;99.90;;;;;;5047577;28;20192;-63
2022/01/24 05:33:25;;;;;;;3.93;2.10;;;4.20;99.90;;;;;;5046241;28;20195;-65
2022/01/24 05:35:52;;;;;;;2.77;1.77;;;4.20;99.90;;;;;;5048299;28;20265;-68
2022/01/24 05:38:19;;;;;;;3.97;1.87;;;4.20;99.90;;;;;;5049935;28;20704;-65
2022/01/24 05:40:45;;;;;;;4.77;1.73;;;4.10;99.90;;;;;;5079305;28;20731;-68
2022/01/24 05:43:12;;;;;;;6.13;2.00;;;4.20;99.90;;;;;;5045480;28;20188;-64
2022/01/24 05:45:38;;;;;;;5.20;2.20;;;4.30;99.90;;;;;;5046946;28;20699;-64
2022/01/24 05:48:05;;;;;;;6.63;1.90;;;4.30;99.90;;;;;;5057469;28;20192;-65
2022/01/24 05:50:31;;;;;;;4.27;1.97;;;4.40;99.90;;;;;;5046729;28;20817;-68
2022/01/24 05:52:57;;;;;;;5.07;2.20;;;4.50;99.90;;;;;;5048256;28;20278;-65
2022/01/24 05:55:24;;;;;;;6.90;1.90;;;4.50;99.90;;;;;;5047288;28;20222;-66
2022/01/24 05:57:53;;;;;;;4.57;1.97;;;4.60;99.90;;;;;;5028844;28;20183;-67
2022/01/24 06:00:22;;;;;;;5.90;1.90;;;4.70;99.90;;;;;;5048266;28;20202;-68
2022/01/24 06:02:49;;;;;;;3.30;2.00;;;4.70;99.90;;;;;;5056170;28;20195;-69
2022/01/24 06:05:16;;;;;;;2.87;1.90;;;4.70;99.90;;;;;;5062441;28;20195;-69
2022/01/24 06:07:42;;;;;;;3.23;1.83;;;4.80;99.90;;;;;;5047658;28;20207;-70
2022/01/24 06:10:09;;;;;;;5.23;2.20;;;4.80;99.90;;;;;;5052575;28;20187;-69
2022/01/24 06:12:36;;;;;;;3.50;2.00;;;4.90;99.90;;;;;;5045518;28;20815;-69
2022/01/24 06:15:04;;;;;;;5.93;2.00;;;4.90;99.90;;;;;;5046068;28;20202;-70
2022/01/24 06:17:30;;;;;;;5.80;2.27;;;4.90;99.90;;;;;;5054068;28;20191;-69
2022/01/24 06:19:57;;;;;;;3.60;1.83;;;4.90;99.90;;;;;;5027598;28;20211;-68
2022/01/24 06:22:23;;;;;;;5.70;2.60;;;4.90;99.90;;;;;;5045927;28;20278;-68
2022/01/24 06:24:49;;;;;;;4.53;1.93;;;4.90;99.90;;;;;;5045849;28;20714;-68
2022/01/24 06:27:16;;;;;;;6.13;2.20;;;4.90;99.90;;;;;;5068818;28;20184;-63
2022/01/24 06:29:42;;;;;;;13.30;3.60;;;5.00;99.90;;;;;;5067480;28;20191;-65
2022/01/24 06:32:08;;;;;;;8.77;3.43;;;5.00;99.90;;;;;;5049340;28;20913;-65
2022/01/24 06:34:36;;;;;;;4.67;2.40;;;5.00;99.90;;;;;;5056413;28;20191;-64
2022/01/24 06:37:04;;;;;;;5.10;2.70;;;5.00;99.90;;;;;;5066707;28;20234;-64
2022/01/24 06:39:31;;;;;;;7.23;2.60;;;5.00;99.90;;;;;;5031923;28;20256;-71
2022/01/24 06:42:10;;;;;;;4.77;2.67;;;5.10;99.90;;;;;;5052584;28;20310;-71
2022/01/24 06:44:36;;;;;;;7.70;2.50;;;5.10;99.90;;;;;;5025819;28;20184;-71
2022/01/24 06:47:03;;;;;;;5.13;2.00;;;5.10;99.90;;;;;;5036798;28;20233;-72
2022/01/24 06:49:31;;;;;;;4.47;2.03;;;5.10;99.90;;;;;;5089588;28;20186;-72
2022/01/24 06:51:58;;;;;;;5.97;2.30;;;5.10;99.90;;;;;;5046082;28;20194;-70
2022/01/24 06:54:24;;;;;;;3.60;2.03;;;5.20;99.90;;;;;;5045747;28;20192;-72
2022/01/24 06:56:50;;;;;;;4.33;2.10;;;5.20;99.90;;;;;;5046627;28;20232;-71
2022/01/24 06:59:17;;;;;;;6.57;2.10;;;5.20;99.90;;;;;;5045651;28;20232;-70
2022/01/24 07:01:43;;;;;;;5.80;2.00;;;5.30;99.90;;;;;;5042247;28;20185;-70
2022/01/24 07:04:10;;;;;;;4.67;1.70;;;5.20;99.90;;;;;;5048153;28;20245;-64
2022/01/24 07:06:36;;;;;;;4.93;2.00;;;5.30;99.90;;;;;;5050818;28;20631;-64
2022/01/24 07:09:03;;;;;;;5.00;2.10;;;5.30;99.90;;;;;;5077926;28;20182;-64
2022/01/24 07:11:30;;;;;;;6.10;1.70;;;5.40;99.90;;;;;;5051835;28;20540;-65
2022/01/24 07:13:56;;;;;;;3.67;1.70;;;5.30;99.90;;;;;;5041917;28;20200;-66
2022/01/24 07:16:24;;;;;;;4.47;1.63;;;5.30;99.90;;;;;;5044714;28;20256;-65
2022/01/24 07:19:03;;;;;;;6.27;1.80;;;5.40;99.90;;;;;;5045914;28;20184;-69
2022/01/24 07:21:30;;;;;;;3.83;1.63;;;5.30;99.90;;;;;;5028664;28;20203;-70
2022/01/24 07:23:56;;;;;;;3.47;1.80;;;5.30;99.90;;;;;;5045228;28;20198;-66
2022/01/24 07:26:22;;;;;;;4.67;1.43;;;5.30;99.90;;;;;;5044658;28;20183;-67
2022/01/24 07:28:49;;;;;;;6.73;2.07;;;5.40;99.90;;;;;;5043915;28;20187;-65
2022/01/24 07:31:15;;;;;;;3.47;1.70;;;5.40;99.90;;;;;;5041819;28;20208;-65
2022/01/24 07:33:41;;;;;;;7.03;1.93;;;5.50;99.90;;;;;;5051966;28;20233;-65
2022/01/24 07:36:07;;;;;;;4.77;1.70;;;5.50;99.90;;;;;;5052078;28;20187;-68
2022/01/24 07:38:34;;;;;;;4.73;1.57;;;5.50;99.90;;;;;;5062935;28;20210;-69
2022/01/24 07:41:01;;;;;;;3.53;1.47;;;5.60;99.90;;;;;;5047848;28;20219;-66
2022/01/24 07:43:28;;;;;;;4.17;1.70;;;5.70;99.90;;;;;;5044720;28;20183;-64
2022/01/24 07:45:54;;;;;;;2.93;1.57;;;5.80;99.90;;;;;;5044960;28;20278;-65
2022/01/24 07:48:21;;;;;;;5.23;2.07;;;5.90;99.90;;;;;;5043594;28;20194;-67
2022/01/24 07:50:51;;;;;;;7.97;1.90;;;5.90;99.90;;;;;;5065449;28;20214;-64
2022/01/24 07:53:20;;;;;;;3.80;1.70;;;5.90;99.90;;;;;;5045646;28;20175;-63
2022/01/24 07:55:47;;;;;;;9.20;1.90;;;6.00;99.90;;;;;;5045030;28;20740;-65
2022/01/24 07:58:13;;;;;;;4.03;1.90;;;6.00;99.90;;;;;;5044001;28;20187;-63
2022/01/24 08:00:40;;;;;;;4.47;1.90;;;6.00;99.90;;;;;;5043542;28;20667;-65
2022/01/24 08:03:07;;;;;;;6.20;2.33;;;6.10;99.90;;;;;;5042391;28;20179;-66
2022/01/24 08:05:36;;;;;;;3.87;2.33;;;6.20;99.90;;;;;;5029995;28;20570;-66
2022/01/24 08:08:03;;;;;;;4.97;1.77;;;6.20;99.90;;;;;;5049234;28;20541;-65
2022/01/24 08:10:29;;;;;;;4.80;2.00;;;6.30;99.90;;;;;;5027115;28;20278;-64
2022/01/24 08:12:56;;;;;;;4.53;1.63;;;6.30;99.90;;;;;;5038546;28;20195;-63
2022/01/24 08:15:24;;;;;;;4.93;1.60;;;6.30;99.90;;;;;;5024576;28;20188;-65
2022/01/24 08:17:50;;;;;;;4.10;1.70;;;6.30;99.90;;;;;;5036780;28;20391;-64
2022/01/24 08:20:18;;;;;;;4.93;1.40;;;6.30;99.90;;;;;;5030783;28;20669;-63
2022/01/24 08:22:45;;;;;;;3.20;1.60;;;6.30;99.90;;;;;;5056582;28;20761;-64
2022/01/24 08:25:12;;;;;;;4.47;1.70;;;6.30;99.90;;;;;;5041376;28;20671;-67
2022/01/24 08:27:38;;;;;;;2.50;1.57;;;6.30;99.90;;;;;;5048313;28;20180;-64
2022/01/24 08:30:11;;;;;;;5.93;1.33;;;6.30;99.90;;;;;;5045496;28;20214;-67
2022/01/24 08:32:39;;;;;;;3.30;1.40;;;6.30;99.90;;;;;;5046375;28;20694;-64
2022/01/24 08:35:09;;;;;;;3.20;1.70;;;6.30;99.90;;;;;;5053386;28;20194;-63
2022/01/24 08:37:37;;;;;;;2.43;1.47;;;6.30;99.90;;;;;;5041325;28;20454;-65
2022/01/24 08:40:09;;;;;;;4.87;1.40;;;6.30;99.90;;;;;;5043855;28;20976;-65
2022/01/24 08:47:50;;;;;;;1.80;1.20;;;6.40;99.90;;;;;;5061480;28;21229;-69
2022/01/24 08:50:20;;;;;;;3.63;1.60;;;6.40;99.90;;;;;;5047597;28;20205;-72
2022/01/24 08:52:47;;;;;;;2.57;1.43;;;6.50;99.90;;;;;;5046813;28;20191;-64
2022/01/24 08:55:13;;;;;;;3.77;1.57;;;6.50;99.90;;;;;;5044592;28;20214;-65
2022/01/24 08:57:40;;;;;;;2.80;1.73;;;6.60;99.90;;;;;;5029302;28;20192;-65
2022/01/24 09:00:07;;;;;;;2.70;1.30;;;6.60;99.90;;;;;;5046114;28;20226;-66
2022/01/24 09:02:35;;;;;;;4.33;1.53;;;6.60;99.90;;;;;;5040822;28;20211;-66
2022/01/24 09:05:03;;;;;;;3.87;1.67;;;6.60;99.90;;;;;;5038737;28;20203;-67
2022/01/24 09:07:30;;;;;;;2.40;1.47;;;6.70;99.90;;;;;;5050826;28;20217;-68
2022/01/24 09:09:57;;;;;;;4.07;1.60;;;6.80;99.90;;;;;;5046328;28;20245;-65
2022/01/24 09:12:24;;;;;;;7.13;1.63;;;6.90;99.90;;;;;;5029761;28;20220;-64
2022/01/24 09:14:52;;;;;;;3.13;1.50;;;7.00;99.90;;;;;;5067479;28;21020;-64
2022/01/24 09:17:18;;;;;;;2.20;1.50;;;7.00;99.90;;;;;;5046082;28;20191;-65
2022/01/24 09:19:48;;;;;;;4.73;1.40;;;7.10;99.90;;;;;;5033354;28;20230;-68
2022/01/24 09:22:14;;;;;;;2.60;1.30;;;7.20;99.90;;;;;;5045029;28;20183;-68
2022/01/24 09:24:41;;;;;;;5.07;1.80;;;7.30;99.90;;;;;;5048423;28;20646;-64
2022/01/24 09:27:07;;;;;;;4.77;1.50;;;7.40;99.90;;;;;;5045920;28;20188;-69
2022/01/24 09:29:34;;;;;;;4.53;1.57;;;7.50;99.90;;;;;;5044672;28;20521;-65
2022/01/24 09:32:01;;;;;;;4.20;1.70;;;7.60;99.90;;;;;;5044889;28;20187;-67
2022/01/24 09:34:28;;;;;;;3.70;1.30;;;7.60;99.90;;;;;;5035226;28;22418;-67
2022/01/24 09:36:55;;;;;;;5.40;1.50;;;7.60;99.90;;;;;;5044154;28;20846;-68
2022/01/24 09:39:22;;;;;;;3.60;1.50;;;7.60;99.90;;;;;;5037961;28;22269;-67
2022/01/24 09:41:48;;;;;;;3.50;1.60;;;7.60;99.90;;;;;;5043904;28;20706;-69
2022/01/24 09:44:15;;;;;;;3.50;1.70;;;7.50;99.90;;;;;;5045851;28;20222;-66
2022/01/24 09:46:44;;;;;;;4.43;1.60;;;7.30;99.90;;;;;;5045831;28;20278;-67
2022/01/24 09:49:13;;;;;;;3.80;1.40;;;7.10;99.90;;;;;;5076721;28;20202;-68
2022/01/24 09:51:44;;;;;;;4.03;1.47;;;6.90;99.90;;;;;;5076367;28;20196;-67
2022/01/24 09:54:12;;;;;;;5.13;1.60;;;6.90;99.90;;;;;;5033229;28;20187;-67
2022/01/24 09:56:40;;;;;;;4.77;1.57;;;6.90;99.90;;;;;;5027944;28;20218;-67
2022/01/24 09:59:07;;;;;;;2.90;1.47;;;6.90;99.90;;;;;;5041693;28;20329;-68
2022/01/24 10:01:35;;;;;;;2.50;1.40;;;6.90;99.90;;;;;;5042137;28;20901;-67
2022/01/24 10:04:19;;;;;;;4.47;1.63;;;7.00;99.90;;;;;;5044134;28;20188;-69
2022/01/24 10:07:05;;;;;;;4.37;1.70;;;7.10;99.90;;;;;;5038802;28;20231;-66
2022/01/24 10:09:43;;;;;;;2.00;1.50;;;7.10;99.90;;;;;;5048480;28;20313;-67
2022/01/24 10:18:09;;;;;;;8.37;1.80;;;7.40;99.90;;;;;;5048068;28;20183;-67
2022/01/24 10:20:42;;;;;;;4.50;1.60;;;7.50;99.90;;;;;;5020977;28;20199;-65
2022/01/24 10:23:44;;;;;;;3.00;1.40;;;7.60;99.90;;;;;;5026952;28;20187;-67
2022/01/24 10:26:11;;;;;;;4.30;1.53;;;8.10;99.90;;;;;;5032553;28;20202;-67
2022/01/24 10:28:45;;;;;;;2.30;1.33;;;8.30;99.90;;;;;;5043134;28;20578;-67
2022/01/24 10:31:28;;;;;;;1.93;1.20;;;8.30;99.90;;;;;;5045362;28;20278;-66
2022/01/24 10:34:05;;;;;;;4.90;1.63;;;8.30;99.90;;;;;;5045129;28;20195;-67
2022/01/24 10:36:45;;;;;;;3.13;1.50;;;8.40;99.90;;;;;;5076489;28;20244;-70
2022/01/24 10:42:36;;;;;;;5.10;1.50;;;8.10;99.90;;;;;;5044536;28;20995;-65
2022/01/24 10:45:19;;;;;;;4.30;1.47;;;7.90;99.90;;;;;;5045697;28;20233;-69
2022/01/24 10:47:50;;;;;;;4.57;2.70;;;7.70;99.90;;;;;;5043120;28;20585;-67
2022/01/24 10:50:34;;;;;;;3.27;1.70;;;7.60;99.90;;;;;;5075529;28;20207;-66
2022/01/24 10:53:13;;;;;;;3.53;1.40;;;7.90;99.90;;;;;;5038882;28;20294;-67
2022/01/24 10:55:42;;;;;;;6.53;2.70;;;9.40;99.90;;;;;;5043746;28;20756;-68
2022/01/24 10:58:18;;;;;;;3.93;1.63;;;11.60;99.90;;;;;;5044298;28;20275;-67
2022/01/24 11:00:48;;;;;;;4.40;1.53;;;11.30;99.90;;;;;;5059042;28;20298;-67
2022/01/24 11:03:19;;;;;;;2.50;1.43;;;10.60;99.90;;;;;;5026710;28;20183;-66
2022/01/24 11:05:46;;;;;;;3.93;1.60;;;10.80;99.90;;;;;;5040714;28;20221;-67
2022/01/24 11:08:17;;;;;;;7.87;1.50;;;11.10;99.90;;;;;;5056891;28;20221;-67
2022/01/24 11:10:47;;;;;;;2.80;1.20;;;11.30;99.90;;;;;;5049499;28;20675;-67
2022/01/24 11:13:18;;;;;;;3.97;1.40;;;11.50;99.90;;;;;;5052805;28;20256;-65
2022/01/24 11:15:55;;;;;;;4.10;1.77;;;11.80;99.90;;;;;;5041705;28;20223;-65
2022/01/24 11:18:25;;;;;;;3.33;1.50;;;11.90;99.90;;;;;;5043316;28;20183;-65
2022/01/24 11:21:01;;;;;;;3.17;1.83;;;11.50;99.90;;;;;;5044100;28;20211;-66
2022/01/24 11:23:29;;;;;;;4.90;1.70;;;11.30;99.90;;;;;;5044921;28;20187;-66
2022/01/24 11:26:01;;;;;;;3.33;1.30;;;11.00;99.90;;;;;;5041247;28;20218;-67
2022/01/24 11:28:28;;;;;;;3.73;1.47;;;10.30;99.90;;;;;;5042530;28;20226;-66
2022/01/24 11:31:05;;;;;;;1.53;1.27;;;9.90;99.90;;;;;;5043289;28;20179;-66
2022/01/24 11:33:41;;;;;;;2.83;1.40;;;9.70;99.90;;;;;;5043077;28;20176;-67
2022/01/24 11:36:09;;;;;;;3.33;1.50;;;9.70;99.90;;;;;;5075376;28;20661;-66
2022/01/24 11:38:42;;;;;;;1.97;1.40;;;9.70;99.90;;;;;;5040888;28;20643;-65
2022/01/24 11:41:31;;;;;;;2.17;1.27;;;9.40;99.90;;;;;;5029341;28;20787;-66
2022/01/24 11:44:11;;;;;;;2.33;1.40;;;9.40;99.90;;;;;;5047048;28;20194;-65
2022/01/24 11:46:58;;;;;;;3.83;1.00;;;9.60;99.90;;;;;;5058179;28;20811;-66
2022/01/24 11:49:27;;;;;;;1.93;1.23;;;9.70;99.90;;;;;;5041181;28;20194;-66
2022/01/24 11:52:17;;;;;;;4.63;1.40;;;9.70;99.90;;;;;;5075841;28;20183;-66
2022/01/24 11:54:51;;;;;;;3.23;1.60;;;9.60;99.90;;;;;;5039557;28;20601;-68
2022/01/24 11:57:27;;;;;;;2.13;1.60;;;9.30;99.90;;;;;;5044007;28;20183;-66
2022/01/24 12:00:06;;;;;;;2.00;1.20;;;9.10;99.90;;;;;;5030277;28;20203;-66
2022/01/24 12:02:45;;;;;;;2.10;1.30;;;9.20;99.90;;;;;;5044342;28;20963;-69
2022/01/24 12:05:26;;;;;;;5.43;1.47;;;9.30;99.90;;;;;;5041463;28;20728;-65
2022/01/24 12:08:06;;;;;;;5.23;2.00;;;9.30;99.90;;;;;;5055622;28;20191;-66
2022/01/24 12:10:35;;;;;;;2.67;1.43;;;9.30;99.90;;;;;;5045592;28;20191;-67
2022/01/24 12:13:39;;;;;;;3.93;1.30;;;9.30;99.90;;;;;;5046965;28;20206;-64
2022/01/24 12:16:11;;;;;;;3.77;1.50;;;9.10;99.90;;;;;;5033829;28;20218;-64
2022/01/24 12:18:37;;;;;;;4.83;1.73;;;9.00;99.90;;;;;;5043923;28;20196;-67
2022/01/24 12:21:16;;;;;;;3.00;1.40;;;9.00;99.90;;;;;;5047414;28;20211;-64
2022/01/24 12:23:53;;;;;;;3.33;1.50;;;9.00;99.90;;;;;;5045000;28;20179;-67
2022/01/24 12:26:23;;;;;;;3.77;1.40;;;9.00;99.90;;;;;;5064747;28;20213;-65
2022/01/24 12:29:27;;;;;;;2.07;1.60;;;8.80;99.90;;;;;;5047233;28;20187;-67
2022/01/24 12:31:59;;;;;;;2.60;1.13;;;8.70;99.90;;;;;;5042972;28;20191;-67
2022/01/24 12:34:51;;;;;;;4.43;1.40;;;8.60;99.90;;;;;;5045332;28;20921;-65
2022/01/24 12:37:31;;;;;;;6.13;1.50;;;8.70;99.90;;;;;;5041857;28;20199;-69
2022/01/24 12:40:11;;;;;;;3.07;1.40;;;8.80;99.90;;;;;;5077582;28;20219;-68
2022/01/24 12:42:52;;;;;;;3.50;1.60;;;8.80;99.90;;;;;;5076836;28;20179;-67
2022/01/24 12:48:19;;;;;;;5.60;1.43;;;8.70;99.90;;;;;;5046549;28;20183;-65
2022/01/24 12:50:54;;;;;;;2.80;1.63;;;8.60;99.90;;;;;;5048515;28;20288;-66
2022/01/24 12:53:21;;;;;;;2.40;1.30;;;8.50;99.90;;;;;;5046732;28;20202;-68
2022/01/24 12:56:11;;;;;;;2.10;1.30;;;8.30;99.90;;;;;;5046652;28;20195;-68
2022/01/24 12:58:42;;;;;;;3.37;1.47;;;8.10;99.90;;;;;;5061400;28;20192;-67
2022/01/24 13:01:34;;;;;;;3.40;1.53;;;8.00;99.90;;;;;;5045081;28;20211;-66
2022/01/24 13:04:13;;;;;;;4.23;1.40;;;8.00;99.90;;;;;;5075360;28;20195;-67
2022/01/24 13:06:44;;;;;;;3.00;1.40;;;7.90;99.90;;;;;;5057608;28;20183;-66
2022/01/24 13:09:24;;;;;;;2.13;1.43;;;7.90;99.90;;;;;;5044345;28;20881;-66
2022/01/24 13:11:54;;;;;;;2.67;1.40;;;8.10;99.90;;;;;;5045882;28;20571;-69
2022/01/24 13:14:28;;;;;;;2.27;1.40;;;8.10;99.90;;;;;;5044763;28;20880;-65
2022/01/24 13:25:12;;;;;;;3.70;1.33;;;7.90;99.90;;;;;;5047542;28;20187;-68
2022/01/24 13:27:49;;;;;;;2.93;1.60;;;8.00;99.90;;;;;;5042051;28;20187;-67
2022/01/24 13:30:25;;;;;;;3.07;1.30;;;8.10;99.90;;;;;;5042576;28;20222;-67
2022/01/24 13:33:02;;;;;;;2.40;1.47;;;8.10;99.90;;;;;;5041489;28;20194;-67
2022/01/24 13:35:38;;;;;;;2.87;1.40;;;8.00;99.90;;;;;;5044179;28;20195;-66
2022/01/24 13:38:25;;;;;;;1.70;1.20;;;8.10;99.90;;;;;;5042516;28;20218;-65
2022/01/24 13:41:10;;;;;;;4.00;1.60;;;8.10;99.90;;;;;;5042174;28;20227;-65
2022/01/24 13:43:44;;;;;;;8.37;1.40;;;8.10;99.90;;;;;;5043071;28;20195;-69
2022/01/24 13:46:16;;;;;;;1.47;1.20;;;8.10;99.90;;;;;;5079787;28;20246;-69
2022/01/24 13:48:56;;;;;;;1.40;1.20;;;8.10;99.90;;;;;;5043931;28;20183;-66
2022/01/24 13:51:35;;;;;;;4.27;1.40;;;8.00;99.90;;;;;;5045430;28;20278;-67
2022/01/24 13:54:13;;;;;;;6.70;1.80;;;8.00;99.90;;;;;;5043098;28;20583;-66
2022/01/24 13:56:45;;;;;;;4.23;1.20;;;7.90;99.90;;;;;;5058864;28;20206;-69
2022/01/24 13:59:26;;;;;;;3.27;1.47;;;7.80;99.90;;;;;;5073834;28;20187;-68
2022/01/24 14:02:19;;;;;;;1.97;1.37;;;7.80;99.90;;;;;;5041316;28;20214;-66
2022/01/24 14:04:54;;;;;;;2.00;1.13;;;7.90;99.90;;;;;;5043620;28;20270;-66
2022/01/24 14:07:41;;;;;;;2.20;1.27;;;7.90;99.90;;;;;;5043758;28;20621;-68
2022/01/24 14:10:17;;;;;;;2.27;1.43;;;7.80;99.90;;;;;;5038157;28;20791;-65
2022/01/24 14:12:49;;;;;;;3.57;1.70;;;7.80;99.90;;;;;;5042711;28;20858;-68
2022/01/24 14:15:38;;;;;;;2.60;1.20;;;7.80;99.90;;;;;;5043593;28;20237;-67
2022/01/24 14:20:52;;;;;;;3.10;1.50;;;7.70;99.90;;;;;;5041656;28;20270;-66
2022/01/24 14:23:45;;;;;;;2.17;1.30;;;7.70;99.90;;;;;;5043594;28;20672;-66
2022/01/24 14:26:16;;;;;;;3.63;1.47;;;7.70;99.90;;;;;;5040352;28;20191;-67
2022/01/24 14:28:43;;;;;;;2.83;1.37;;;7.60;99.90;;;;;;5076262;28;20197;-69
2022/01/24 14:31:14;;;;;;;3.10;1.20;;;7.60;99.90;;;;;;5046391;28;20199;-68
2022/01/24 14:33:45;;;;;;;2.87;1.40;;;7.50;99.90;;;;;;5045376;28;20188;-67
2022/01/24 14:36:19;;;;;;;3.20;1.40;;;7.50;99.90;;;;;;5045743;28;20184;-67
2022/01/24 14:38:58;;;;;;;4.07;1.90;;;7.40;99.90;;;;;;5044525;28;20211;-68
2022/01/24 14:41:28;;;;;;;2.47;1.50;;;7.40;99.90;;;;;;5060431;28;20540;-67
2022/01/24 14:46:43;;;;;;;2.93;1.40;;;7.20;99.90;;;;;;5078519;28;20211;-68
2022/01/24 14:49:19;;;;;;;2.40;1.70;;;7.20;99.90;;;;;;5027157;28;20193;-66
2022/01/24 14:51:47;;;;;;;2.43;1.83;;;7.10;99.90;;;;;;5051227;28;20196;-66
2022/01/24 14:54:21;;;;;;;4.37;1.83;;;7.00;99.90;;;;;;5042404;28;20183;-65
2022/01/24 14:56:51;;;;;;;2.63;1.57;;;6.90;99.90;;;;;;5038625;28;20192;-66
2022/01/24 14:59:20;;;;;;;2.20;1.60;;;6.80;99.90;;;;;;5042998;28;20195;-66
2022/01/24 15:01:47;;;;;;;2.40;1.70;;;6.70;99.90;;;;;;5038971;28;20369;-66
2022/01/24 15:04:14;;;;;;;3.83;1.70;;;6.60;99.90;;;;;;5042844;28;20203;-67
2022/01/24 15:06:41;;;;;;;1.80;1.47;;;6.60;99.90;;;;;;5043350;28;20184;-67
2022/01/24 15:09:14;;;;;;;3.70;1.60;;;6.50;99.90;;;;;;5043638;28;20202;-66
2022/01/24 15:11:43;;;;;;;2.33;1.40;;;6.40;99.90;;;;;;5075191;28;20223;-67
2022/01/24 15:14:19;;;;;;;5.60;2.00;;;6.30;99.90;;;;;;5039998;28;20290;-69
2022/01/24 15:17:25;;;;;;;3.90;1.40;;;6.30;99.90;;;;;;5043523;28;20408;-66
2022/01/24 15:25:31;;;;;;;4.17;1.90;;;6.10;99.90;;;;;;5045107;28;20179;-66
2022/01/24 15:27:58;;;;;;;4.90;1.60;;;6.10;99.90;;;;;;5040711;28;20191;-68
2022/01/24 15:30:26;;;;;;;5.00;1.77;;;6.00;99.90;;;;;;5044334;28;20314;-66
2022/01/24 15:32:52;;;;;;;2.30;1.30;;;5.90;99.90;;;;;;5054609;28;20288;-66
2022/01/24 15:35:20;;;;;;;2.63;1.60;;;5.90;99.90;;;;;;5043649;28;20989;-67